sensor_id;sensor_type;location;lat;lon;timestamp;P1;durP1;ratioP1;P2;durP2;ratioP2
75061;SDS011;63641;46.526;24.612;2024-02-14T00:02:24;5.20;;;4.18;;
75061;SDS011;63641;46.526;24.612;2024-02-14T00:04:54;5.18;;;4.07;;
75061;SDS011;63641;46.526;24.612;2024-02-14T00:07:21;5.00;;;3.58;;
75061;SDS011;63641;46.526;24.612;2024-02-14T00:09:48;4.45;;;4.05;;
75061;SDS011;63641;46.526;24.612;2024-02-14T00:12:14;4.22;;;3.83;;
75061;SDS011;63641;46.526;24.612;2024-02-14T00:14:41;5.20;;;3.70;;
75061;SDS011;63641;46.526;24.612;2024-02-14T00:17:09;5.63;;;4.45;;
75061;SDS011;63641;46.526;24.612;2024-02-14T00:19:36;5.60;;;4.45;;
75061;SDS011;63641;46.526;24.612;2024-02-14T00:22:03;5.45;;;4.25;;
75061;SDS011;63641;46.526;24.612;2024-02-14T00:24:30;4.85;;;4.30;;
75061;SDS011;63641;46.526;24.612;2024-02-14T00:26:58;5.43;;;4.80;;
75061;SDS011;63641;46.526;24.612;2024-02-14T00:29:27;5.28;;;4.70;;
75061;SDS011;63641;46.526;24.612;2024-02-14T00:31:54;6.68;;;4.43;;
75061;SDS011;63641;46.526;24.612;2024-02-14T00:34:20;6.00;;;4.70;;
75061;SDS011;63641;46.526;24.612;2024-02-14T00:36:48;5.85;;;4.60;;
75061;SDS011;63641;46.526;24.612;2024-02-14T00:39:14;7.78;;;4.88;;
75061;SDS011;63641;46.526;24.612;2024-02-14T00:41:41;5.03;;;4.53;;
75061;SDS011;63641;46.526;24.612;2024-02-14T00:44:08;6.05;;;4.72;;
75061;SDS011;63641;46.526;24.612;2024-02-14T00:46:35;5.43;;;4.80;;
75061;SDS011;63641;46.526;24.612;2024-02-14T00:49:02;5.72;;;5.22;;
75061;SDS011;63641;46.526;24.612;2024-02-14T00:51:29;4.90;;;4.35;;
75061;SDS011;63641;46.526;24.612;2024-02-14T00:53:56;4.68;;;4.20;;
75061;SDS011;63641;46.526;24.612;2024-02-14T00:56:22;5.20;;;4.70;;
75061;SDS011;63641;46.526;24.612;2024-02-14T00:58:50;5.45;;;4.43;;
75061;SDS011;63641;46.526;24.612;2024-02-14T01:01:17;4.78;;;4.07;;
75061;SDS011;63641;46.526;24.612;2024-02-14T01:03:43;7.38;;;4.97;;
75061;SDS011;63641;46.526;24.612;2024-02-14T01:06:10;5.30;;;4.60;;
75061;SDS011;63641;46.526;24.612;2024-02-14T01:08:37;6.75;;;4.78;;
75061;SDS011;63641;46.526;24.612;2024-02-14T01:11:04;5.43;;;4.53;;
75061;SDS011;63641;46.526;24.612;2024-02-14T01:13:31;5.68;;;4.28;;
75061;SDS011;63641;46.526;24.612;2024-02-14T01:15:58;6.38;;;4.18;;
75061;SDS011;63641;46.526;24.612;2024-02-14T01:18:24;5.60;;;4.75;;
75061;SDS011;63641;46.526;24.612;2024-02-14T01:20:52;5.20;;;4.35;;
75061;SDS011;63641;46.526;24.612;2024-02-14T01:23:20;6.07;;;4.03;;
75061;SDS011;63641;46.526;24.612;2024-02-14T01:25:46;5.55;;;4.78;;
75061;SDS011;63641;46.526;24.612;2024-02-14T01:28:13;4.80;;;4.30;;
75061;SDS011;63641;46.526;24.612;2024-02-14T01:30:40;4.82;;;4.32;;
75061;SDS011;63641;46.526;24.612;2024-02-14T01:33:07;4.80;;;4.05;;
75061;SDS011;63641;46.526;24.612;2024-02-14T01:35:34;5.15;;;4.32;;
75061;SDS011;63641;46.526;24.612;2024-02-14T01:38:01;5.25;;;4.43;;
75061;SDS011;63641;46.526;24.612;2024-02-14T01:40:29;4.95;;;4.38;;
75061;SDS011;63641;46.526;24.612;2024-02-14T01:42:56;4.28;;;3.80;;
75061;SDS011;63641;46.526;24.612;2024-02-14T01:45:22;5.25;;;4.65;;
75061;SDS011;63641;46.526;24.612;2024-02-14T01:47:49;4.78;;;4.18;;
75061;SDS011;63641;46.526;24.612;2024-02-14T01:50:17;5.32;;;4.40;;
75061;SDS011;63641;46.526;24.612;2024-02-14T01:52:44;4.72;;;4.18;;
75061;SDS011;63641;46.526;24.612;2024-02-14T01:55:12;6.15;;;3.83;;
75061;SDS011;63641;46.526;24.612;2024-02-14T01:57:39;5.22;;;4.38;;
75061;SDS011;63641;46.526;24.612;2024-02-14T02:00:06;4.20;;;3.80;;
75061;SDS011;63641;46.526;24.612;2024-02-14T02:02:41;5.15;;;4.40;;
75061;SDS011;63641;46.526;24.612;2024-02-14T02:05:09;4.45;;;4.03;;
75061;SDS011;63641;46.526;24.612;2024-02-14T02:07:36;4.78;;;4.15;;
75061;SDS011;63641;46.526;24.612;2024-02-14T02:10:06;4.50;;;4.10;;
75061;SDS011;63641;46.526;24.612;2024-02-14T02:12:33;5.32;;;4.53;;
75061;SDS011;63641;46.526;24.612;2024-02-14T02:15:00;5.00;;;4.03;;
75061;SDS011;63641;46.526;24.612;2024-02-14T02:17:26;4.10;;;3.70;;
75061;SDS011;63641;46.526;24.612;2024-02-14T02:19:54;5.40;;;3.65;;
75061;SDS011;63641;46.526;24.612;2024-02-14T02:22:21;4.55;;;3.65;;
75061;SDS011;63641;46.526;24.612;2024-02-14T02:24:47;4.00;;;3.42;;
75061;SDS011;63641;46.526;24.612;2024-02-14T02:27:14;4.25;;;3.75;;
75061;SDS011;63641;46.526;24.612;2024-02-14T02:29:42;4.25;;;3.80;;
75061;SDS011;63641;46.526;24.612;2024-02-14T02:32:09;4.30;;;3.67;;
75061;SDS011;63641;46.526;24.612;2024-02-14T02:34:36;4.70;;;4.30;;
75061;SDS011;63641;46.526;24.612;2024-02-14T02:37:05;5.03;;;3.85;;
75061;SDS011;63641;46.526;24.612;2024-02-14T02:39:35;5.15;;;4.72;;
75061;SDS011;63641;46.526;24.612;2024-02-14T02:42:03;4.30;;;3.90;;
75061;SDS011;63641;46.526;24.612;2024-02-14T02:44:31;5.38;;;4.47;;
75061;SDS011;63641;46.526;24.612;2024-02-14T02:46:58;4.72;;;4.03;;
75061;SDS011;63641;46.526;24.612;2024-02-14T02:49:27;4.45;;;3.92;;
75061;SDS011;63641;46.526;24.612;2024-02-14T02:51:55;5.05;;;4.40;;
75061;SDS011;63641;46.526;24.612;2024-02-14T02:54:22;5.18;;;4.00;;
75061;SDS011;63641;46.526;24.612;2024-02-14T02:56:49;5.15;;;4.40;;
75061;SDS011;63641;46.526;24.612;2024-02-14T02:59:16;4.97;;;4.03;;
75061;SDS011;63641;46.526;24.612;2024-02-14T03:01:43;5.20;;;4.22;;
75061;SDS011;63641;46.526;24.612;2024-02-14T03:04:10;5.63;;;4.00;;
75061;SDS011;63641;46.526;24.612;2024-02-14T03:06:39;5.05;;;4.13;;
75061;SDS011;63641;46.526;24.612;2024-02-14T03:09:07;6.00;;;4.30;;
75061;SDS011;63641;46.526;24.612;2024-02-14T03:11:34;5.30;;;4.80;;
75061;SDS011;63641;46.526;24.612;2024-02-14T03:14:02;5.07;;;4.57;;
75061;SDS011;63641;46.526;24.612;2024-02-14T03:16:29;5.38;;;4.57;;
75061;SDS011;63641;46.526;24.612;2024-02-14T03:18:56;6.85;;;4.80;;
75061;SDS011;63641;46.526;24.612;2024-02-14T03:21:23;7.30;;;5.30;;
75061;SDS011;63641;46.526;24.612;2024-02-14T03:23:50;6.50;;;5.22;;
75061;SDS011;63641;46.526;24.612;2024-02-14T03:26:17;5.85;;;5.00;;
75061;SDS011;63641;46.526;24.612;2024-02-14T03:28:44;5.90;;;4.88;;
75061;SDS011;63641;46.526;24.612;2024-02-14T03:31:11;6.68;;;5.50;;
75061;SDS011;63641;46.526;24.612;2024-02-14T03:33:41;6.00;;;4.88;;
75061;SDS011;63641;46.526;24.612;2024-02-14T03:36:09;6.63;;;5.40;;
75061;SDS011;63641;46.526;24.612;2024-02-14T03:38:37;6.65;;;5.53;;
75061;SDS011;63641;46.526;24.612;2024-02-14T03:41:06;7.03;;;6.32;;
75061;SDS011;63641;46.526;24.612;2024-02-14T03:43:33;6.75;;;5.40;;
75061;SDS011;63641;46.526;24.612;2024-02-14T03:46:00;5.82;;;5.30;;
75061;SDS011;63641;46.526;24.612;2024-02-14T03:48:27;6.90;;;6.18;;
75061;SDS011;63641;46.526;24.612;2024-02-14T03:50:54;6.05;;;5.07;;
75061;SDS011;63641;46.526;24.612;2024-02-14T03:53:21;5.95;;;5.10;;
75061;SDS011;63641;46.526;24.612;2024-02-14T03:55:48;6.90;;;5.80;;
75061;SDS011;63641;46.526;24.612;2024-02-14T03:58:15;6.97;;;5.40;;
75061;SDS011;63641;46.526;24.612;2024-02-14T04:00:51;6.70;;;6.00;;
75061;SDS011;63641;46.526;24.612;2024-02-14T04:03:19;7.32;;;5.60;;
75061;SDS011;63641;46.526;24.612;2024-02-14T04:05:46;7.93;;;5.80;;
75061;SDS011;63641;46.526;24.612;2024-02-14T04:08:14;7.60;;;5.95;;
75061;SDS011;63641;46.526;24.612;2024-02-14T04:10:41;6.55;;;5.63;;
75061;SDS011;63641;46.526;24.612;2024-02-14T04:13:09;8.73;;;6.32;;
75061;SDS011;63641;46.526;24.612;2024-02-14T04:15:36;6.60;;;5.90;;
75061;SDS011;63641;46.526;24.612;2024-02-14T04:18:03;7.05;;;5.85;;
75061;SDS011;63641;46.526;24.612;2024-02-14T04:20:33;9.90;;;6.90;;
75061;SDS011;63641;46.526;24.612;2024-02-14T04:23:00;8.55;;;6.82;;
75061;SDS011;63641;46.526;24.612;2024-02-14T04:25:27;8.93;;;7.18;;
75061;SDS011;63641;46.526;24.612;2024-02-14T04:27:54;10.02;;;6.45;;
75061;SDS011;63641;46.526;24.612;2024-02-14T04:30:21;7.57;;;6.00;;
75061;SDS011;63641;46.526;24.612;2024-02-14T04:32:48;8.80;;;6.15;;
75061;SDS011;63641;46.526;24.612;2024-02-14T04:35:15;6.97;;;5.80;;
75061;SDS011;63641;46.526;24.612;2024-02-14T04:37:42;6.22;;;5.47;;
75061;SDS011;63641;46.526;24.612;2024-02-14T04:40:12;7.60;;;5.85;;
75061;SDS011;63641;46.526;24.612;2024-02-14T04:42:40;8.25;;;6.35;;
75061;SDS011;63641;46.526;24.612;2024-02-14T04:45:07;8.20;;;6.60;;
75061;SDS011;63641;46.526;24.612;2024-02-14T04:47:35;8.95;;;6.07;;
75061;SDS011;63641;46.526;24.612;2024-02-14T04:50:02;7.50;;;5.97;;
75061;SDS011;63641;46.526;24.612;2024-02-14T04:52:30;8.93;;;6.75;;
75061;SDS011;63641;46.526;24.612;2024-02-14T04:54:57;7.38;;;6.60;;
75061;SDS011;63641;46.526;24.612;2024-02-14T04:57:24;7.30;;;5.93;;
75061;SDS011;63641;46.526;24.612;2024-02-14T04:59:51;8.27;;;5.93;;
75061;SDS011;63641;46.526;24.612;2024-02-14T05:02:18;7.35;;;5.72;;
75061;SDS011;63641;46.526;24.612;2024-02-14T05:04:45;8.25;;;6.20;;
75061;SDS011;63641;46.526;24.612;2024-02-14T05:07:12;6.57;;;5.55;;
75061;SDS011;63641;46.526;24.612;2024-02-14T05:09:39;7.00;;;6.25;;
75061;SDS011;63641;46.526;24.612;2024-02-14T05:12:06;7.55;;;6.55;;
75061;SDS011;63641;46.526;24.612;2024-02-14T05:14:38;7.72;;;5.55;;
75061;SDS011;63641;46.526;24.612;2024-02-14T05:17:05;6.93;;;5.45;;
75061;SDS011;63641;46.526;24.612;2024-02-14T05:19:31;7.75;;;6.20;;
75061;SDS011;63641;46.526;24.612;2024-02-14T05:21:59;8.35;;;6.45;;
75061;SDS011;63641;46.526;24.612;2024-02-14T05:24:26;8.68;;;7.38;;
75061;SDS011;63641;46.526;24.612;2024-02-14T05:26:56;7.90;;;6.63;;
75061;SDS011;63641;46.526;24.612;2024-02-14T05:29:23;7.70;;;6.20;;
75061;SDS011;63641;46.526;24.612;2024-02-14T05:31:50;8.15;;;6.85;;
75061;SDS011;63641;46.526;24.612;2024-02-14T05:34:18;9.18;;;6.13;;
75061;SDS011;63641;46.526;24.612;2024-02-14T05:36:46;6.88;;;6.15;;
75061;SDS011;63641;46.526;24.612;2024-02-14T05:39:13;7.18;;;5.93;;
75061;SDS011;63641;46.526;24.612;2024-02-14T05:41:43;6.82;;;5.40;;
75061;SDS011;63641;46.526;24.612;2024-02-14T05:44:10;7.88;;;6.43;;
75061;SDS011;63641;46.526;24.612;2024-02-14T05:46:36;7.18;;;5.70;;
75061;SDS011;63641;46.526;24.612;2024-02-14T05:49:03;6.78;;;5.90;;
75061;SDS011;63641;46.526;24.612;2024-02-14T05:51:30;9.05;;;7.03;;
75061;SDS011;63641;46.526;24.612;2024-02-14T05:53:58;7.20;;;5.78;;
75061;SDS011;63641;46.526;24.612;2024-02-14T05:56:25;7.07;;;6.22;;
75061;SDS011;63641;46.526;24.612;2024-02-14T05:58:52;8.07;;;6.38;;
75061;SDS011;63641;46.526;24.612;2024-02-14T06:01:19;7.93;;;6.30;;
75061;SDS011;63641;46.526;24.612;2024-02-14T06:03:46;7.63;;;5.88;;
75061;SDS011;63641;46.526;24.612;2024-02-14T06:06:12;6.88;;;6.07;;
75061;SDS011;63641;46.526;24.612;2024-02-14T06:08:40;7.43;;;6.40;;
75061;SDS011;63641;46.526;24.612;2024-02-14T06:11:06;9.10;;;6.75;;
75061;SDS011;63641;46.526;24.612;2024-02-14T06:13:34;8.45;;;7.07;;
75061;SDS011;63641;46.526;24.612;2024-02-14T06:16:02;8.35;;;7.18;;
75061;SDS011;63641;46.526;24.612;2024-02-14T06:18:29;9.18;;;7.03;;
75061;SDS011;63641;46.526;24.612;2024-02-14T06:20:56;8.35;;;7.15;;
75061;SDS011;63641;46.526;24.612;2024-02-14T06:23:23;9.23;;;7.00;;
75061;SDS011;63641;46.526;24.612;2024-02-14T06:25:50;7.47;;;6.53;;
75061;SDS011;63641;46.526;24.612;2024-02-14T06:28:16;10.27;;;7.60;;
75061;SDS011;63641;46.526;24.612;2024-02-14T06:30:43;11.07;;;7.45;;
75061;SDS011;63641;46.526;24.612;2024-02-14T06:33:10;8.15;;;7.20;;
75061;SDS011;63641;46.526;24.612;2024-02-14T06:35:37;10.75;;;7.68;;
75061;SDS011;63641;46.526;24.612;2024-02-14T06:38:04;8.60;;;7.70;;
75061;SDS011;63641;46.526;24.612;2024-02-14T06:40:32;9.60;;;7.03;;
75061;SDS011;63641;46.526;24.612;2024-02-14T06:42:59;9.95;;;7.25;;
75061;SDS011;63641;46.526;24.612;2024-02-14T06:45:27;9.68;;;7.55;;
75061;SDS011;63641;46.526;24.612;2024-02-14T06:47:54;12.02;;;7.13;;
75061;SDS011;63641;46.526;24.612;2024-02-14T06:50:22;9.40;;;7.38;;
75061;SDS011;63641;46.526;24.612;2024-02-14T06:52:51;11.55;;;6.57;;
75061;SDS011;63641;46.526;24.612;2024-02-14T06:55:18;9.93;;;6.90;;
75061;SDS011;63641;46.526;24.612;2024-02-14T06:57:45;10.40;;;6.88;;
75061;SDS011;63641;46.526;24.612;2024-02-14T07:00:13;8.45;;;6.88;;
75061;SDS011;63641;46.526;24.612;2024-02-14T07:02:40;6.30;;;5.68;;
75061;SDS011;63641;46.526;24.612;2024-02-14T07:05:07;10.05;;;5.57;;
75061;SDS011;63641;46.526;24.612;2024-02-14T07:07:35;9.15;;;6.95;;
75061;SDS011;63641;46.526;24.612;2024-02-14T07:10:02;10.05;;;7.22;;
75061;SDS011;63641;46.526;24.612;2024-02-14T07:12:32;9.60;;;6.75;;
75061;SDS011;63641;46.526;24.612;2024-02-14T07:14:59;8.95;;;6.47;;
75061;SDS011;63641;46.526;24.612;2024-02-14T07:17:26;11.57;;;7.35;;
75061;SDS011;63641;46.526;24.612;2024-02-14T07:19:53;10.23;;;7.22;;
75061;SDS011;63641;46.526;24.612;2024-02-14T07:22:20;9.30;;;6.05;;
75061;SDS011;63641;46.526;24.612;2024-02-14T07:24:46;8.68;;;6.22;;
75061;SDS011;63641;46.526;24.612;2024-02-14T07:27:14;8.23;;;6.35;;
75061;SDS011;63641;46.526;24.612;2024-02-14T07:29:42;8.77;;;5.97;;
75061;SDS011;63641;46.526;24.612;2024-02-14T07:32:10;8.52;;;6.00;;
75061;SDS011;63641;46.526;24.612;2024-02-14T07:34:40;7.93;;;6.07;;
75061;SDS011;63641;46.526;24.612;2024-02-14T07:37:07;8.65;;;6.57;;
75061;SDS011;63641;46.526;24.612;2024-02-14T07:39:34;6.90;;;6.20;;
75061;SDS011;63641;46.526;24.612;2024-02-14T07:42:04;8.57;;;6.22;;
75061;SDS011;63641;46.526;24.612;2024-02-14T07:44:32;8.77;;;6.80;;
75061;SDS011;63641;46.526;24.612;2024-02-14T07:46:59;8.60;;;7.18;;
75061;SDS011;63641;46.526;24.612;2024-02-14T07:49:30;8.82;;;7.13;;
75061;SDS011;63641;46.526;24.612;2024-02-14T07:51:57;9.15;;;7.63;;
75061;SDS011;63641;46.526;24.612;2024-02-14T07:54:24;9.43;;;7.38;;
75061;SDS011;63641;46.526;24.612;2024-02-14T07:56:51;8.90;;;6.90;;
75061;SDS011;63641;46.526;24.612;2024-02-14T07:59:18;9.32;;;6.18;;
75061;SDS011;63641;46.526;24.612;2024-02-14T08:01:46;9.48;;;7.28;;
75061;SDS011;63641;46.526;24.612;2024-02-14T08:04:13;8.25;;;6.40;;
75061;SDS011;63641;46.526;24.612;2024-02-14T08:06:40;8.27;;;6.47;;
75061;SDS011;63641;46.526;24.612;2024-02-14T08:09:07;9.65;;;6.55;;
75061;SDS011;63641;46.526;24.612;2024-02-14T08:11:36;11.50;;;7.78;;
75061;SDS011;63641;46.526;24.612;2024-02-14T08:14:03;8.13;;;6.25;;
75061;SDS011;63641;46.526;24.612;2024-02-14T08:16:30;8.50;;;6.57;;
75061;SDS011;63641;46.526;24.612;2024-02-14T08:18:57;7.38;;;5.80;;
75061;SDS011;63641;46.526;24.612;2024-02-14T08:21:26;8.52;;;6.40;;
75061;SDS011;63641;46.526;24.612;2024-02-14T08:23:57;7.28;;;6.07;;
75061;SDS011;63641;46.526;24.612;2024-02-14T08:26:27;7.35;;;6.65;;
75061;SDS011;63641;46.526;24.612;2024-02-14T08:28:54;9.73;;;6.45;;
75061;SDS011;63641;46.526;24.612;2024-02-14T08:31:21;8.63;;;6.70;;
75061;SDS011;63641;46.526;24.612;2024-02-14T08:33:49;9.65;;;7.50;;
75061;SDS011;63641;46.526;24.612;2024-02-14T08:36:16;9.50;;;7.88;;
75061;SDS011;63641;46.526;24.612;2024-02-14T08:38:45;8.65;;;7.30;;
75061;SDS011;63641;46.526;24.612;2024-02-14T08:41:12;8.80;;;7.25;;
75061;SDS011;63641;46.526;24.612;2024-02-14T08:43:39;11.35;;;8.00;;
75061;SDS011;63641;46.526;24.612;2024-02-14T08:46:11;8.40;;;7.35;;
75061;SDS011;63641;46.526;24.612;2024-02-14T08:48:38;8.88;;;7.72;;
75061;SDS011;63641;46.526;24.612;2024-02-14T08:51:13;8.52;;;7.47;;
75061;SDS011;63641;46.526;24.612;2024-02-14T08:53:40;11.93;;;8.32;;
75061;SDS011;63641;46.526;24.612;2024-02-14T08:56:12;9.38;;;8.25;;
75061;SDS011;63641;46.526;24.612;2024-02-14T08:58:39;9.98;;;7.88;;
75061;SDS011;63641;46.526;24.612;2024-02-14T09:01:06;9.43;;;7.43;;
75061;SDS011;63641;46.526;24.612;2024-02-14T09:06:16;7.43;;;6.68;;
75061;SDS011;63641;46.526;24.612;2024-02-14T09:08:46;7.32;;;6.15;;
75061;SDS011;63641;46.526;24.612;2024-02-14T09:11:14;7.28;;;6.50;;
75061;SDS011;63641;46.526;24.612;2024-02-14T09:13:40;6.97;;;5.82;;
75061;SDS011;63641;46.526;24.612;2024-02-14T09:16:08;8.27;;;5.65;;
75061;SDS011;63641;46.526;24.612;2024-02-14T09:18:36;7.57;;;6.72;;
75061;SDS011;63641;46.526;24.612;2024-02-14T09:21:03;6.38;;;5.35;;
75061;SDS011;63641;46.526;24.612;2024-02-14T09:23:32;5.88;;;5.00;;
75061;SDS011;63641;46.526;24.612;2024-02-14T09:25:59;8.48;;;7.13;;
75061;SDS011;63641;46.526;24.612;2024-02-14T09:28:26;7.38;;;5.63;;
75061;SDS011;63641;46.526;24.612;2024-02-14T09:30:53;7.43;;;5.80;;
75061;SDS011;63641;46.526;24.612;2024-02-14T09:33:21;6.43;;;5.65;;
75061;SDS011;63641;46.526;24.612;2024-02-14T09:35:48;6.63;;;5.78;;
75061;SDS011;63641;46.526;24.612;2024-02-14T09:38:16;5.68;;;5.13;;
75061;SDS011;63641;46.526;24.612;2024-02-14T09:40:43;6.35;;;5.40;;
75061;SDS011;63641;46.526;24.612;2024-02-14T09:46:02;6.18;;;5.13;;
75061;SDS011;63641;46.526;24.612;2024-02-14T09:48:33;6.30;;;5.13;;
75061;SDS011;63641;46.526;24.612;2024-02-14T09:51:01;6.50;;;5.85;;
75061;SDS011;63641;46.526;24.612;2024-02-14T09:53:29;7.20;;;4.88;;
75061;SDS011;63641;46.526;24.612;2024-02-14T09:55:57;6.78;;;5.47;;
75061;SDS011;63641;46.526;24.612;2024-02-14T09:58:25;5.85;;;5.32;;
75061;SDS011;63641;46.526;24.612;2024-02-14T10:00:53;11.35;;;6.10;;
75061;SDS011;63641;46.526;24.612;2024-02-14T10:03:20;7.20;;;6.50;;
75061;SDS011;63641;46.526;24.612;2024-02-14T10:05:47;9.10;;;6.22;;
75061;SDS011;63641;46.526;24.612;2024-02-14T10:08:14;7.20;;;5.65;;
75061;SDS011;63641;46.526;24.612;2024-02-14T10:10:41;6.13;;;5.43;;
75061;SDS011;63641;46.526;24.612;2024-02-14T10:13:08;7.68;;;6.00;;
75061;SDS011;63641;46.526;24.612;2024-02-14T10:15:35;6.55;;;5.80;;
75061;SDS011;63641;46.526;24.612;2024-02-14T10:18:02;6.03;;;5.38;;
75061;SDS011;63641;46.526;24.612;2024-02-14T10:20:30;7.15;;;5.15;;
75061;SDS011;63641;46.526;24.612;2024-02-14T10:23:02;7.00;;;4.72;;
75061;SDS011;63641;46.526;24.612;2024-02-14T10:25:30;6.50;;;4.60;;
75061;SDS011;63641;46.526;24.612;2024-02-14T10:28:04;6.70;;;5.50;;
75061;SDS011;63641;46.526;24.612;2024-02-14T10:30:38;6.85;;;5.30;;
75061;SDS011;63641;46.526;24.612;2024-02-14T10:33:06;5.35;;;4.68;;
75061;SDS011;63641;46.526;24.612;2024-02-14T10:35:49;5.70;;;4.78;;
75061;SDS011;63641;46.526;24.612;2024-02-14T10:38:19;6.28;;;5.45;;
75061;SDS011;63641;46.526;24.612;2024-02-14T10:40:48;7.70;;;5.40;;
75061;SDS011;63641;46.526;24.612;2024-02-14T10:43:17;6.70;;;5.45;;
75061;SDS011;63641;46.526;24.612;2024-02-14T10:45:44;6.40;;;5.20;;
75061;SDS011;63641;46.526;24.612;2024-02-14T10:48:11;7.28;;;5.35;;
75061;SDS011;63641;46.526;24.612;2024-02-14T10:50:42;7.93;;;5.35;;
75061;SDS011;63641;46.526;24.612;2024-02-14T10:53:12;5.97;;;5.38;;
75061;SDS011;63641;46.526;24.612;2024-02-14T10:55:42;6.03;;;5.45;;
75061;SDS011;63641;46.526;24.612;2024-02-14T10:58:12;6.15;;;5.35;;
75061;SDS011;63641;46.526;24.612;2024-02-14T11:00:40;6.25;;;5.43;;
75061;SDS011;63641;46.526;24.612;2024-02-14T11:03:07;7.25;;;5.90;;
75061;SDS011;63641;46.526;24.612;2024-02-14T11:05:46;4.82;;;4.38;;
75061;SDS011;63641;46.526;24.612;2024-02-14T11:08:14;6.60;;;5.13;;
75061;SDS011;63641;46.526;24.612;2024-02-14T11:10:51;6.13;;;4.63;;
75061;SDS011;63641;46.526;24.612;2024-02-14T11:13:20;5.20;;;4.70;;
75061;SDS011;63641;46.526;24.612;2024-02-14T11:15:51;6.32;;;4.50;;
75061;SDS011;63641;46.526;24.612;2024-02-14T11:18:27;4.43;;;3.95;;
75061;SDS011;63641;46.526;24.612;2024-02-14T11:21:02;5.60;;;4.50;;
75061;SDS011;63641;46.526;24.612;2024-02-14T11:23:31;5.35;;;4.25;;
75061;SDS011;63641;46.526;24.612;2024-02-14T11:26:01;5.00;;;4.40;;
75061;SDS011;63641;46.526;24.612;2024-02-14T11:28:30;4.90;;;4.50;;
75061;SDS011;63641;46.526;24.612;2024-02-14T11:31:00;5.13;;;4.10;;
75061;SDS011;63641;46.526;24.612;2024-02-14T11:33:30;5.68;;;4.60;;
75061;SDS011;63641;46.526;24.612;2024-02-14T11:35:57;5.25;;;4.60;;
75061;SDS011;63641;46.526;24.612;2024-02-14T11:38:25;5.07;;;4.57;;
75061;SDS011;63641;46.526;24.612;2024-02-14T11:40:55;7.32;;;4.60;;
75061;SDS011;63641;46.526;24.612;2024-02-14T11:43:23;5.97;;;4.45;;
75061;SDS011;63641;46.526;24.612;2024-02-14T11:45:51;5.35;;;3.75;;
75061;SDS011;63641;46.526;24.612;2024-02-14T11:48:20;4.40;;;4.00;;
75061;SDS011;63641;46.526;24.612;2024-02-14T11:50:51;4.75;;;4.05;;
75061;SDS011;63641;46.526;24.612;2024-02-14T11:53:20;5.13;;;4.57;;
75061;SDS011;63641;46.526;24.612;2024-02-14T11:55:47;5.15;;;4.30;;
75061;SDS011;63641;46.526;24.612;2024-02-14T11:58:17;5.15;;;4.65;;
75061;SDS011;63641;46.526;24.612;2024-02-14T12:00:44;5.25;;;4.75;;
75061;SDS011;63641;46.526;24.612;2024-02-14T12:03:16;5.47;;;4.10;;
75061;SDS011;63641;46.526;24.612;2024-02-14T12:05:46;4.68;;;4.20;;
75061;SDS011;63641;46.526;24.612;2024-02-14T12:08:16;4.40;;;3.85;;
75061;SDS011;63641;46.526;24.612;2024-02-14T12:10:44;5.45;;;4.40;;
75061;SDS011;63641;46.526;24.612;2024-02-14T12:13:20;3.85;;;3.22;;
75061;SDS011;63641;46.526;24.612;2024-02-14T12:15:48;4.43;;;3.78;;
75061;SDS011;63641;46.526;24.612;2024-02-14T12:18:16;5.38;;;3.70;;
75061;SDS011;63641;46.526;24.612;2024-02-14T12:20:48;3.92;;;3.53;;
75061;SDS011;63641;46.526;24.612;2024-02-14T12:23:21;5.60;;;3.70;;
75061;SDS011;63641;46.526;24.612;2024-02-14T12:25:50;4.65;;;3.63;;
75061;SDS011;63641;46.526;24.612;2024-02-14T12:28:17;3.80;;;3.40;;
75061;SDS011;63641;46.526;24.612;2024-02-14T12:30:50;4.38;;;3.28;;
75061;SDS011;63641;46.526;24.612;2024-02-14T12:33:24;4.32;;;3.63;;
75061;SDS011;63641;46.526;24.612;2024-02-14T12:35:53;4.78;;;4.22;;
75061;SDS011;63641;46.526;24.612;2024-02-14T12:38:21;6.45;;;4.53;;
75061;SDS011;63641;46.526;24.612;2024-02-14T12:40:50;5.38;;;3.80;;
75061;SDS011;63641;46.526;24.612;2024-02-14T12:43:19;5.15;;;4.20;;
75061;SDS011;63641;46.526;24.612;2024-02-14T12:45:47;4.32;;;3.63;;
75061;SDS011;63641;46.526;24.612;2024-02-14T12:48:21;4.72;;;4.32;;
75061;SDS011;63641;46.526;24.612;2024-02-14T12:50:50;5.60;;;4.47;;
75061;SDS011;63641;46.526;24.612;2024-02-14T12:53:19;5.07;;;4.50;;
75061;SDS011;63641;46.526;24.612;2024-02-14T12:55:46;5.25;;;4.30;;
75061;SDS011;63641;46.526;24.612;2024-02-14T12:58:13;5.15;;;4.65;;
75061;SDS011;63641;46.526;24.612;2024-02-14T13:00:41;5.65;;;4.78;;
75061;SDS011;63641;46.526;24.612;2024-02-14T13:03:09;5.35;;;4.85;;
75061;SDS011;63641;46.526;24.612;2024-02-14T13:05:37;6.43;;;5.05;;
75061;SDS011;63641;46.526;24.612;2024-02-14T13:08:04;6.15;;;5.40;;
75061;SDS011;63641;46.526;24.612;2024-02-14T13:10:32;6.50;;;5.28;;
75061;SDS011;63641;46.526;24.612;2024-02-14T13:12:59;4.72;;;3.75;;
75061;SDS011;63641;46.526;24.612;2024-02-14T13:15:26;4.57;;;4.15;;
75061;SDS011;63641;46.526;24.612;2024-02-14T13:17:53;5.10;;;4.60;;
75061;SDS011;63641;46.526;24.612;2024-02-14T13:20:20;4.30;;;3.63;;
75061;SDS011;63641;46.526;24.612;2024-02-14T13:22:47;4.13;;;3.70;;
75061;SDS011;63641;46.526;24.612;2024-02-14T13:25:14;5.15;;;4.30;;
75061;SDS011;63641;46.526;24.612;2024-02-14T13:27:42;5.20;;;4.70;;
75061;SDS011;63641;46.526;24.612;2024-02-14T13:30:10;6.03;;;4.80;;
75061;SDS011;63641;46.526;24.612;2024-02-14T13:32:37;4.32;;;3.92;;
75061;SDS011;63641;46.526;24.612;2024-02-14T13:35:05;5.65;;;4.00;;
75061;SDS011;63641;46.526;24.612;2024-02-14T13:37:32;4.70;;;3.78;;
75061;SDS011;63641;46.526;24.612;2024-02-14T13:39:59;7.55;;;4.00;;
75061;SDS011;63641;46.526;24.612;2024-02-14T13:42:27;5.15;;;3.95;;
75061;SDS011;63641;46.526;24.612;2024-02-14T13:44:54;4.80;;;4.18;;
75061;SDS011;63641;46.526;24.612;2024-02-14T13:47:22;5.72;;;4.78;;
75061;SDS011;63641;46.526;24.612;2024-02-14T13:49:50;5.20;;;4.70;;
75061;SDS011;63641;46.526;24.612;2024-02-14T13:52:18;6.63;;;4.22;;
75061;SDS011;63641;46.526;24.612;2024-02-14T13:54:46;4.68;;;3.97;;
75061;SDS011;63641;46.526;24.612;2024-02-14T13:57:13;4.78;;;4.28;;
75061;SDS011;63641;46.526;24.612;2024-02-14T13:59:43;4.53;;;4.03;;
75061;SDS011;63641;46.526;24.612;2024-02-14T14:02:09;4.93;;;3.85;;
75061;SDS011;63641;46.526;24.612;2024-02-14T14:04:36;5.15;;;4.15;;
75061;SDS011;63641;46.526;24.612;2024-02-14T14:07:04;5.50;;;4.43;;
75061;SDS011;63641;46.526;24.612;2024-02-14T14:09:31;3.95;;;3.58;;
75061;SDS011;63641;46.526;24.612;2024-02-14T14:11:59;6.63;;;4.10;;
75061;SDS011;63641;46.526;24.612;2024-02-14T14:14:26;5.03;;;4.20;;
75061;SDS011;63641;46.526;24.612;2024-02-14T14:16:53;4.85;;;4.07;;
75061;SDS011;63641;46.526;24.612;2024-02-14T14:19:20;4.53;;;3.67;;
75061;SDS011;63641;46.526;24.612;2024-02-14T14:21:47;5.72;;;4.60;;
75061;SDS011;63641;46.526;24.612;2024-02-14T14:24:14;8.48;;;5.07;;
75061;SDS011;63641;46.526;24.612;2024-02-14T14:26:42;5.20;;;4.70;;
75061;SDS011;63641;46.526;24.612;2024-02-14T14:29:09;6.47;;;4.35;;
75061;SDS011;63641;46.526;24.612;2024-02-14T14:31:36;5.43;;;3.75;;
75061;SDS011;63641;46.526;24.612;2024-02-14T14:34:03;4.60;;;3.80;;
75061;SDS011;63641;46.526;24.612;2024-02-14T14:36:31;4.57;;;3.75;;
75061;SDS011;63641;46.526;24.612;2024-02-14T14:38:58;5.20;;;3.67;;
75061;SDS011;63641;46.526;24.612;2024-02-14T14:41:25;4.60;;;3.75;;
75061;SDS011;63641;46.526;24.612;2024-02-14T14:43:52;5.95;;;4.07;;